Time;durP1;ratioP1;P1;durP2;ratioP2;P2;SDS_P1;SDS_P2;PMS_P1;PMS_P2;Temp;Humidity;BMP_temperature;BMP_pressure;BME280_temperature;BME280_humidity;BME280_pressure;Samples;Min_cycle;Max_cycle;Signal;HPM_P1;HPM_P2
2022/06/08 00:02:27;;;;;;;8.98;7.58;;;;;;;17.40;84.96;98223.22;1772871;80;25635;-60
2022/06/08 00:04:53;;;;;;;;;;;;;;;17.37;84.57;98226.16;1778504;80;28104;-60
2022/06/08 00:07:19;;;;;;;9.63;8.18;;;;;;;17.35;85.13;98224.33;1775709;80;25540;-60
2022/06/08 00:09:45;;;;;;;11.95;8.20;;;;;;;17.42;85.03;98226.43;1775509;79;25596;-60
2022/06/08 00:12:12;;;;;;;10.95;7.78;;;;;;;17.46;85.08;98229.23;1775602;80;25744;-60
2022/06/08 00:14:39;;;;;;;9.15;7.87;;;;;;;17.47;84.75;98225.31;1775573;80;25450;-60
2022/06/08 00:17:06;;;;;;;8.83;7.92;;;;;;;17.47;84.74;98233.02;1775564;80;28447;-60
2022/06/08 00:19:32;;;;;;;9.05;7.80;;;;;;;17.48;84.48;98227.72;1775443;79;25735;-60
2022/06/08 00:21:58;;;;;;;9.85;8.28;;;;;;;17.42;84.69;98221.67;1775555;80;25577;-61
2022/06/08 00:24:25;;;;;;;9.33;7.78;;;;;;;17.36;84.74;98227.30;1775332;80;25906;-61
2022/06/08 00:26:51;;;;;;;8.80;7.90;;;;;;;17.36;85.12;98219.00;1775802;79;25660;-61
2022/06/08 00:29:18;;;;;;;9.45;8.43;;;;;;;17.40;84.72;98212.95;1772627;80;26776;-61
2022/06/08 00:31:45;;;;;;;9.93;8.90;;;;;;;17.33;84.35;98203.72;1768323;80;26075;-61
2022/06/08 00:34:12;;;;;;;9.60;8.55;;;;;;;17.25;84.57;98198.08;1768549;80;25759;-61
2022/06/08 00:36:38;;;;;;;10.45;8.70;;;;;;;17.24;85.13;98193.69;1768137;80;25739;-61
2022/06/08 00:39:05;;;;;;;9.60;8.63;;;;;;;17.34;85.56;98193.66;1768134;80;25656;-61
2022/06/08 00:41:55;;;;;;;12.03;8.40;;;;;;;17.41;85.34;98194.34;1768474;80;27420;-61
2022/06/08 00:44:33;;;;;;;10.18;8.43;;;;;;;17.45;84.95;98193.03;1768586;81;25641;-61
2022/06/08 00:47:03;;;;;;;9.93;8.50;;;;;;;17.40;84.53;98174.75;1768093;80;25584;-61
2022/06/08 00:49:49;;;;;;;10.13;8.83;;;;;;;17.18;85.35;98159.17;1768505;81;25911;-61
2022/06/08 00:52:17;;;;;;;9.88;8.68;;;;;;;17.08;85.30;98157.84;1768425;81;25458;-61
2022/06/08 00:54:48;;;;;;;10.98;9.23;;;;;;;16.99;85.47;98155.87;1768200;81;27476;-61
2022/06/08 00:58:01;;;;;;;11.80;9.70;;;;;;;16.89;85.78;98150.36;1768452;80;25862;-61
2022/06/08 01:00:37;;;;;;;11.00;9.68;;;;;;;16.86;86.05;98149.71;1768469;80;25470;-61
2022/06/08 01:03:03;;;;;;;12.03;8.98;;;;;;;16.87;85.74;98152.72;1768102;80;25602;-61
2022/06/08 01:05:49;;;;;;;11.83;9.18;;;;;;;16.79;85.54;98147.64;1768558;80;25422;-61
2022/06/08 01:08:39;;;;;;;12.07;10.25;;;;;;;16.67;85.91;98149.40;1768146;80;27516;-61
2022/06/08 01:11:13;;;;;;;12.95;9.83;;;;;;;16.57;86.19;98144.48;1768867;80;25605;-61
2022/06/08 01:13:40;;;;;;;11.28;9.40;;;;;;;16.52;86.26;98143.41;1768114;80;25447;-61
2022/06/08 01:16:09;;;;;;;11.53;9.23;;;;;;;16.49;86.22;98142.16;1768117;80;25718;-61
2022/06/08 01:18:37;;;;;;;11.73;9.80;;;;;;;16.46;86.30;98140.73;1768419;81;25641;-61
2022/06/08 01:21:24;;;;;;;12.58;10.28;;;;;;;16.45;86.33;98137.72;1768461;81;28221;-61
2022/06/08 01:23:57;;;;;;;13.62;10.05;;;;;;;16.45;86.39;98139.11;1768575;80;25642;-61
2022/06/08 01:26:44;;;;;;;12.65;10.95;;;;;;;16.43;86.52;98143.05;1768570;81;25420;-61
2022/06/08 01:29:34;;;;;;;12.00;10.70;;;;;;;16.50;86.84;98147.92;1765299;80;25856;-61
2022/06/08 01:32:17;;;;;;;13.10;10.43;;;;;;;16.62;87.06;98148.91;1768891;80;25590;-60
2022/06/08 01:35:22;;;;;;;11.70;9.60;;;;;;;16.67;86.27;98145.25;1768190;80;27474;-60
2022/06/08 01:38:24;;;;;;;11.78;10.32;;;;;;;16.74;86.29;98143.20;1768752;81;25587;-60
2022/06/08 01:41:32;;;;;;;12.65;10.30;;;;;;;16.74;86.04;98133.52;1768737;81;25629;-60
2022/06/08 01:44:16;;;;;;;15.80;10.48;;;;;;;16.71;86.10;98132.06;1768409;80;25786;-60
2022/06/08 01:47:06;;;;;;;14.23;10.95;;;;;;;16.71;86.28;98123.77;1768225;80;25653;-60
2022/06/08 01:49:43;;;;;;;13.43;10.70;;;;;;;16.73;86.31;98123.63;1768506;81;27771;-60
2022/06/08 01:52:20;;;;;;;13.90;11.35;;;;;;;16.75;86.23;98118.52;1768179;80;25899;-61
2022/06/08 01:55:07;;;;;;;15.43;11.70;;;;;;;16.66;86.30;98114.61;1768236;80;25527;-60
2022/06/08 01:57:54;;;;;;;14.10;11.03;;;;;;;16.62;86.80;98104.08;1768507;81;26478;-60
2022/06/08 02:00:32;;;;;;;14.70;10.38;;;;;;;16.56;86.99;98112.46;1768673;80;25440;-60
2022/06/08 02:03:28;;;;;;;15.03;11.70;;;;;;;16.48;87.23;98100.47;1768418;81;28201;-60
2022/06/08 02:06:14;;;;;;;13.10;10.90;;;;;;;16.42;87.37;98108.27;1732305;82;25856;-60
2022/06/08 02:08:54;;;;;;;14.87;12.30;;;;;;;16.39;87.42;98113.16;1731602;82;25640;-60
2022/06/08 02:11:32;;;;;;;14.43;11.55;;;;;;;16.34;87.69;98111.25;1732438;82;25748;-61
2022/06/08 02:14:14;;;;;;;14.75;11.43;;;;;;;16.34;87.97;98120.92;1732211;82;25760;-61
2022/06/08 02:16:54;;;;;;;14.58;12.23;;;;;;;16.34;87.80;98116.78;1732148;82;27496;-60
2022/06/08 02:19:28;;;;;;;15.72;12.80;;;;;;;16.43;88.22;98125.07;1732302;82;25693;-60
2022/06/08 02:22:06;;;;;;;15.45;11.93;;;;;;;16.56;87.82;98132.60;1732256;82;25701;-60
2022/06/08 02:24:40;;;;;;;13.80;11.25;;;;;;;16.66;87.65;98134.55;1732467;82;25727;-60
2022/06/08 02:27:24;;;;;;;15.08;12.20;;;;;;;16.75;87.45;98134.33;1730761;82;25787;-60
2022/06/08 02:30:11;;;;;;;13.38;11.55;;;;;;;16.76;87.25;98136.73;1733569;82;27832;-61
2022/06/08 02:35:43;;;;;;;11.75;10.32;;;;;;;16.77;87.47;98144.42;1736805;82;25876;-60
2022/06/08 02:38:14;;;;;;;12.58;10.58;;;;;;;16.79;87.14;98139.34;1736604;82;25716;-60
2022/06/08 02:40:43;;;;;;;;;;;;;;;16.79;87.08;98142.11;1770586;80;25407;-60
2022/06/08 02:43:27;;;;;;;13.10;10.38;;;;;;;16.81;87.11;98140.55;1778701;80;28145;-60
2022/06/08 02:45:58;;;;;;;14.73;11.38;;;;;;;16.79;86.90;98141.53;1778305;80;25649;-60
2022/06/08 02:48:24;;;;;;;17.02;11.85;;;;;;;16.81;87.02;98143.90;1736966;82;25591;-60
2022/06/08 02:50:55;;;;;;;14.18;11.30;;;;;;;16.82;87.07;98148.28;1735616;82;25763;-60
2022/06/08 02:53:29;;;;;;;18.62;12.37;;;;;;;16.81;87.30;98145.28;1709708;83;25634;-60
2022/06/08 02:56:17;;;;;;;16.15;12.20;;;;;;;16.80;87.35;98141.73;1779018;80;27365;-60
2022/06/08 02:58:58;;;;;;;19.80;12.03;;;;;;;16.85;87.00;98146.16;1776201;80;25960;-60
2022/06/08 03:01:27;;;;;;;;;;;;;;;16.92;87.23;98149.05;1781532;80;25656;-60
2022/06/08 03:03:58;;;;;;;16.90;12.13;;;;;;;16.93;86.88;98149.86;1777689;80;25802;-60
2022/06/08 03:06:33;;;;;;;19.27;11.97;;;;;;;16.90;87.02;98147.83;1778915;80;25733;-60
2022/06/08 03:09:03;;;;;;;17.15;12.55;;;;;;;16.93;87.18;98145.10;1777879;80;27649;-60
2022/06/08 03:11:38;;;;;;;16.42;12.60;;;;;;;16.98;87.04;98148.75;1778876;80;29855;-60
2022/06/08 03:14:08;;;;;;;15.05;11.83;;;;;;;17.03;87.17;98152.58;1778041;80;25683;-60
2022/06/08 03:16:43;;;;;;;15.35;11.05;;;;;;;17.03;87.04;98156.73;1778728;80;26747;-60
2022/06/08 03:19:10;;;;;;;15.00;11.83;;;;;;;16.99;86.56;98160.03;1777629;80;25461;-60
2022/06/08 03:21:37;;;;;;;17.55;12.18;;;;;;;16.96;86.63;98160.19;1778617;80;27377;-60
2022/06/08 03:24:05;;;;;;;15.60;11.30;;;;;;;16.95;86.79;98155.80;1778215;80;25712;-60
2022/06/08 03:26:42;;;;;;;16.82;11.83;;;;;;;16.91;87.07;98155.77;1778405;80;25447;-60
2022/06/08 03:29:08;;;;;;;15.93;11.65;;;;;;;16.92;87.11;98158.73;1778272;80;25755;-61
2022/06/08 03:31:34;;;;;;;14.98;10.82;;;;;;;16.97;86.98;98156.82;1769227;80;25591;-61
2022/06/08 03:34:01;;;;;;;13.93;10.68;;;;;;;17.00;86.71;98159.66;1768541;81;27568;-61
2022/06/08 03:36:27;;;;;;;15.70;11.03;;;;;;;16.99;87.48;98160.84;1768323;80;25719;-61
2022/06/08 03:38:53;;;;;;;13.83;11.12;;;;;;;16.98;87.21;98162.59;1768520;81;25689;-61
2022/06/08 03:41:19;;;;;;;14.33;11.33;;;;;;;16.94;86.96;98173.59;1768501;80;25711;-61
2022/06/08 03:43:45;;;;;;;12.88;10.63;;;;;;;16.99;87.02;98174.67;1768596;81;25435;-61
2022/06/08 03:46:12;;;;;;;12.35;10.10;;;;;;;16.96;86.95;98164.91;1768285;81;29569;-61
2022/06/08 03:48:40;;;;;;;13.90;10.68;;;;;;;16.94;86.81;98172.20;1768356;79;25484;-62
2022/06/08 03:51:08;;;;;;;17.42;10.93;;;;;;;16.94;86.77;98176.36;1768682;81;25563;-62
2022/06/08 03:53:45;;;;;;;13.55;10.65;;;;;;;16.98;87.54;98178.59;1768190;81;25836;-62
2022/06/08 03:56:14;;;;;;;16.40;11.65;;;;;;;17.03;87.11;98185.22;1765752;80;25411;-63
2022/06/08 03:58:40;;;;;;;16.97;11.78;;;;;;;17.06;86.95;98187.83;1768566;79;28226;-63
2022/06/08 04:01:06;;;;;;;14.38;11.00;;;;;;;16.98;86.87;98181.36;1768377;81;25731;-63
2022/06/08 04:03:33;;;;;;;12.93;10.25;;;;;;;16.94;86.72;98172.20;1768270;81;25498;-63
2022/06/08 04:06:00;;;;;;;12.00;9.93;;;;;;;16.87;87.37;98173.47;1768119;81;25736;-64
2022/06/08 04:08:28;;;;;;;12.82;9.60;;;;;;;16.80;87.56;98168.02;1768227;80;25577;-63
2022/06/08 04:10:54;;;;;;;13.38;10.35;;;;;;;16.75;88.01;98164.77;1768417;80;27413;-64
2022/06/08 04:13:20;;;;;;;14.70;10.82;;;;;;;16.78;88.44;98168.97;1768478;80;25830;-63
2022/06/08 04:15:46;;;;;;;13.13;10.55;;;;;;;16.79;88.36;98170.58;1768747;80;25895;-64
2022/06/08 04:18:20;;;;;;;13.20;9.28;;;;;;;16.73;88.28;98167.90;1726721;83;25798;-64
2022/06/08 04:20:53;;;;;;;14.45;10.68;;;;;;;16.61;88.79;98162.53;1768506;80;25797;-63
2022/06/08 04:23:23;;;;;;;13.03;10.40;;;;;;;16.52;89.32;98158.63;1768134;81;29588;-66
2022/06/08 04:25:50;;;;;;;15.67;10.93;;;;;;;16.51;89.74;98157.81;1768711;81;25834;-65
2022/06/08 04:28:17;;;;;;;14.43;10.43;;;;;;;16.45;89.44;98150.17;1768432;81;25682;-73
2022/06/08 04:30:44;;;;;;;13.68;9.63;;;;;;;16.38;89.80;98157.16;1768229;79;25742;-80
2022/06/08 04:33:12;;;;;;;12.55;9.90;;;;;;;16.27;90.83;98151.41;1768486;81;25630;-77
2022/06/08 04:35:39;;;;;;;14.78;10.98;;;;;;;16.13;91.66;98147.80;1768455;81;28284;-75
2022/06/08 04:38:06;;;;;;;14.78;10.93;;;;;;;16.04;92.61;98141.09;1768026;81;25705;-76
2022/06/08 04:40:33;;;;;;;16.40;11.65;;;;;;;15.96;93.35;98141.28;1768345;81;25385;-79
2022/06/08 04:43:00;;;;;;;18.10;12.05;;;;;;;15.98;94.75;98145.34;1768613;81;25854;-80
2022/06/08 04:45:27;;;;;;;17.23;12.55;;;;;;;16.04;95.86;98149.98;1768416;81;25620;-81
2022/06/08 04:47:54;;;;;;;16.35;12.73;;;;;;;16.11;95.66;98157.61;1768067;81;27470;-82
2022/06/08 04:50:21;;;;;;;16.90;12.20;;;;;;;16.14;95.53;98161.84;1768238;80;25613;-83
2022/06/08 04:52:48;;;;;;;16.32;12.10;;;;;;;16.15;96.85;98164.81;1768615;80;25570;-83
2022/06/08 04:55:16;;;;;;;15.18;11.65;;;;;;;16.20;97.32;98158.80;1768519;80;25872;-77
2022/06/08 04:57:42;;;;;;;14.98;11.85;;;;;;;16.21;97.04;98157.05;1768444;80;25666;-78
2022/06/08 05:00:16;;;;;;;16.10;11.68;;;;;;;16.25;97.24;98158.48;1768596;79;27473;-76
2022/06/08 05:02:44;;;;;;;16.32;11.80;;;;;;;16.29;96.95;98159.34;1768049;80;25712;-73
2022/06/08 05:05:19;;;;;;;14.63;11.03;;;;;;;16.35;96.76;98162.03;1768193;81;25665;-72
2022/06/08 05:07:47;;;;;;;13.15;10.55;;;;;;;16.38;95.97;98155.00;1768391;81;25736;-70
2022/06/08 05:10:15;;;;;;;13.15;9.83;;;;;;;16.46;96.41;98151.79;1768424;79;25729;-69
2022/06/08 05:12:42;;;;;;;15.43;10.48;;;;;;;16.49;96.18;98142.77;1768259;80;27412;-69
2022/06/08 05:15:14;;;;;;;14.78;10.95;;;;;;;16.48;95.31;98145.29;1768639;80;25440;-68
2022/06/08 05:17:41;;;;;;;12.07;10.23;;;;;;;16.52;95.67;98149.72;1767698;80;25656;-68
2022/06/08 05:20:11;;;;;;;14.30;10.03;;;;;;;16.54;95.14;98145.21;1768245;81;25953;-68
2022/06/08 05:22:37;;;;;;;12.53;10.40;;;;;;;16.46;94.42;98140.73;1768899;81;25613;-68
2022/06/08 05:25:07;;;;;;;12.53;9.40;;;;;;;16.50;94.82;98138.82;1768274;80;27431;-67
2022/06/08 05:27:34;;;;;;;11.68;9.00;;;;;;;16.43;93.98;98133.94;1768600;80;25467;-66
2022/06/08 05:30:01;;;;;;;13.30;10.58;;;;;;;16.38;94.23;98131.49;1768397;81;25965;-67
2022/06/08 05:32:28;;;;;;;11.75;8.73;;;;;;;16.34;94.38;98134.18;1774872;80;25822;-67
2022/06/08 05:34:55;;;;;;;11.03;9.63;;;;;;;16.38;94.50;98133.66;1775472;80;25614;-67
2022/06/08 05:37:22;;;;;;;11.22;9.50;;;;;;;16.35;95.03;98135.77;1775476;80;27576;-67
2022/06/08 05:39:48;;;;;;;10.70;8.55;;;;;;;16.38;94.93;98131.49;1775217;80;25703;-67
2022/06/08 05:42:15;;;;;;;12.78;10.30;;;;;;;16.42;95.17;98132.35;1775455;80;25640;-67
2022/06/08 05:44:42;;;;;;;13.13;10.55;;;;;;;16.48;95.24;98136.42;1775431;80;25808;-65
2022/06/08 05:47:09;;;;;;;12.25;9.78;;;;;;;16.61;95.25;98141.78;1775363;80;25740;-67
2022/06/08 05:49:36;;;;;;;13.10;9.60;;;;;;;16.64;94.83;98141.05;1775610;80;27344;-66
2022/06/08 05:52:06;;;;;;;11.35;9.50;;;;;;;16.70;94.94;98145.69;1775165;79;25864;-66
2022/06/08 05:54:32;;;;;;;12.03;9.87;;;;;;;16.79;95.29;98144.30;1775413;79;25402;-66
2022/06/08 05:57:00;;;;;;;10.68;8.15;;;;;;;16.85;94.38;98145.36;1775386;80;25961;-66
2022/06/08 05:59:27;;;;;;;13.15;9.33;;;;;;;16.85;93.66;98149.51;1775557;80;25432;-65
2022/06/08 06:01:53;;;;;;;12.25;9.93;;;;;;;16.79;93.04;98153.98;1775599;80;28097;-66
2022/06/08 06:04:20;;;;;;;10.50;8.30;;;;;;;16.80;93.85;98156.14;1775085;80;25577;-65
2022/06/08 06:06:47;;;;;;;9.88;8.30;;;;;;;16.81;93.12;98154.97;1775243;79;25656;-66
2022/06/08 06:09:19;;;;;;;12.35;8.38;;;;;;;16.88;93.54;98162.03;1775704;80;25763;-66
2022/06/08 06:11:47;;;;;;;11.93;8.63;;;;;;;16.86;92.42;98158.02;1775539;80;25593;-65
2022/06/08 06:14:14;;;;;;;11.08;8.83;;;;;;;16.80;92.42;98167.21;1775581;80;27414;-65
2022/06/08 06:16:40;;;;;;;10.95;8.85;;;;;;;16.88;93.25;98168.14;1775493;80;26359;-65
2022/06/08 06:19:07;;;;;;;10.88;8.55;;;;;;;17.00;93.39;98171.30;1775494;80;25652;-65
2022/06/08 06:21:34;;;;;;;9.98;8.43;;;;;;;17.17;93.60;98181.12;1775515;80;25893;-66
2022/06/08 06:24:04;;;;;;;10.28;8.10;;;;;;;17.18;92.44;98182.13;1775700;80;25712;-65
2022/06/08 06:26:31;;;;;;;7.47;6.53;;;;;;;17.24;91.97;98181.23;1775809;80;28322;-65
2022/06/08 06:28:58;;;;;;;10.88;7.40;;;;;;;17.26;90.77;98184.44;1775392;80;25661;-65
2022/06/08 06:31:42;;;;;;;9.93;7.85;;;;;;;17.17;90.59;98186.66;1772506;80;25456;-65
2022/06/08 06:34:13;;;;;;;8.90;7.78;;;;;;;17.18;91.44;98187.67;1768462;81;25893;-65
2022/06/08 06:36:39;;;;;;;;;;;;;;;17.21;91.62;98190.88;1771349;80;25627;-64
2022/06/08 06:39:06;;;;;;;11.68;7.90;;;;;;;17.21;90.49;98188.89;1768413;81;27460;-65
2022/06/08 06:41:34;;;;;;;9.95;8.10;;;;;;;17.17;90.70;98194.96;1768115;81;25676;-64
2022/06/08 06:44:00;;;;;;;10.10;8.58;;;;;;;17.14;90.48;98190.16;1768326;81;25709;-65
2022/06/08 06:46:27;;;;;;;11.25;9.18;;;;;;;17.18;91.05;98186.86;1768416;81;25935;-64
2022/06/08 06:48:54;;;;;;;10.53;7.92;;;;;;;17.34;91.65;98188.70;1768358;80;25630;-64
2022/06/08 06:51:21;;;;;;;9.88;7.55;;;;;;;17.46;90.29;98176.61;1768468;81;27627;-64
2022/06/08 06:53:48;;;;;;;10.25;8.33;;;;;;;17.39;89.79;98173.16;1768110;81;25593;-64
2022/06/08 06:56:15;;;;;;;11.63;8.93;;;;;;;17.42;90.53;98172.42;1768165;81;25401;-66
2022/06/08 06:58:42;;;;;;;11.25;8.23;;;;;;;17.55;91.03;98174.38;1768356;81;25801;-65
2022/06/08 07:01:11;;;;;;;9.68;8.33;;;;;;;17.69;90.82;98176.56;1768250;81;25406;-65
2022/06/08 07:03:38;;;;;;;10.32;8.50;;;;;;;17.76;89.99;98171.73;1768593;81;27545;-64
2022/06/08 07:06:05;;;;;;;11.00;8.60;;;;;;;17.82;89.98;98175.77;1768423;81;25428;-64
2022/06/08 07:08:32;;;;;;;12.63;9.78;;;;;;;17.94;89.46;98178.90;1768520;79;25511;-65
2022/06/08 07:13:44;;;;;;;9.93;8.88;;;;;;;18.02;89.65;98172.86;1768264;81;25716;-65
2022/06/08 07:16:11;;;;;;;11.35;8.43;;;;;;;18.04;87.97;98169.11;1768202;81;28298;-65
2022/06/08 07:18:38;;;;;;;9.93;8.08;;;;;;;17.90;87.60;98164.98;1768610;80;25672;-65
2022/06/08 07:21:05;;;;;;;10.50;9.30;;;;;;;17.77;87.57;98159.45;1768341;81;25651;-65
2022/06/08 07:23:32;;;;;;;12.55;9.63;;;;;;;17.64;87.88;98160.25;1768383;81;25729;-64
2022/06/08 07:25:59;;;;;;;11.70;9.48;;;;;;;17.56;87.89;98167.69;1768337;81;25598;-65
2022/06/08 07:28:27;;;;;;;14.00;10.15;;;;;;;17.52;88.48;98172.36;1768392;80;27409;-64
2022/06/08 07:30:53;;;;;;;13.18;10.48;;;;;;;17.56;88.21;98173.23;1767934;80;25459;-64
2022/06/08 07:33:20;;;;;;;12.70;10.20;;;;;;;17.64;88.88;98172.14;1765535;81;25633;-63
2022/06/08 07:35:48;;;;;;;14.63;11.30;;;;;;;17.71;88.78;98172.84;1765132;80;25762;-63
2022/06/08 07:38:15;;;;;;;14.15;11.78;;;;;;;17.72;88.57;98173.63;1765487;81;25688;-63
2022/06/08 07:40:42;;;;;;;13.68;10.32;;;;;;;17.74;88.42;98173.48;1765452;80;27639;-64
2022/06/08 07:43:09;;;;;;;13.28;11.00;;;;;;;17.80;88.00;98178.92;1765467;80;25757;-64
2022/06/08 07:45:36;;;;;;;11.33;9.20;;;;;;;17.77;88.02;98176.89;1765486;81;25642;-64
2022/06/08 07:50:49;;;;;;;13.93;10.63;;;;;;;17.68;88.41;98192.38;1765283;81;25613;-64
2022/06/08 07:53:16;;;;;;;12.23;10.90;;;;;;;17.87;89.09;98200.38;1765150;80;28467;-63
2022/06/08 07:55:44;;;;;;;13.78;10.80;;;;;;;17.97;88.06;98198.94;1765301;80;25669;-64
2022/06/08 07:58:11;;;;;;;12.07;9.95;;;;;;;18.06;88.07;98199.46;1765225;81;25388;-63
2022/06/08 08:00:38;;;;;;;13.28;10.55;;;;;;;18.06;86.69;98203.62;1765126;80;25703;-63
2022/06/08 08:03:04;;;;;;;13.15;10.63;;;;;;;18.05;87.14;98210.92;1765182;81;25657;-64
2022/06/08 08:05:31;;;;;;;13.55;10.93;;;;;;;18.03;86.82;98207.72;1765614;81;27489;-63
2022/06/08 08:07:58;;;;;;;14.47;12.07;;;;;;;17.97;86.62;98214.19;1765140;80;25695;-63
2022/06/08 08:10:26;;;;;;;10.48;8.98;;;;;;;18.04;86.95;98215.66;1765422;80;25568;-63
2022/06/08 08:12:55;;;;;;;12.30;10.23;;;;;;;18.04;86.06;98220.40;1765646;80;25725;-63
2022/06/08 08:15:22;;;;;;;11.22;10.00;;;;;;;17.98;86.12;98218.55;1765241;80;25380;-64
2022/06/08 08:18:13;;;;;;;11.30;9.25;;;;;;;17.92;86.41;98214.50;1758963;81;27443;-64
2022/06/08 08:20:41;;;;;;;11.75;9.25;;;;;;;17.88;86.41;98217.81;1765199;81;25625;-65
2022/06/08 08:23:07;;;;;;;10.72;8.50;;;;;;;17.77;86.47;98210.73;1765466;81;25660;-69
2022/06/08 08:25:35;;;;;;;12.85;9.75;;;;;;;17.68;86.45;98204.85;1765371;80;25829;-67
2022/06/08 08:28:03;;;;;;;11.00;8.98;;;;;;;17.62;86.94;98206.95;1765479;80;25723;-66
2022/06/08 08:30:32;;;;;;;10.78;8.55;;;;;;;17.55;87.13;98198.73;1765586;80;26820;-70
2022/06/08 08:32:59;;;;;;;10.35;7.97;;;;;;;17.50;87.88;98199.65;1767426;80;25666;-67
2022/06/08 08:35:27;;;;;;;9.13;7.95;;;;;;;17.42;88.01;98193.97;1768463;80;25656;-66
2022/06/08 08:37:56;;;;;;;9.35;7.78;;;;;;;17.32;88.57;98192.44;1768503;80;26484;-64
2022/06/08 08:40:48;;;;;;;13.55;10.45;;;;;;;17.23;89.17;98185.75;1768251;80;25613;-69
2022/06/08 08:43:22;;;;;;;11.12;9.45;;;;;;;17.16;90.24;98183.68;1768298;81;27576;-69
2022/06/08 08:46:31;;;;;;;9.00;8.10;;;;;;;17.17;91.37;98179.73;1768345;80;25628;-75
2022/06/08 08:49:08;;;;;;;8.85;7.37;;;;;;;17.23;91.13;98185.75;1768227;80;26067;-73
2022/06/08 08:51:43;;;;;;;10.35;7.62;;;;;;;17.11;90.19;98185.36;1767296;80;27154;-67
2022/06/08 08:54:28;;;;;;;10.15;7.97;;;;;;;17.11;90.72;98180.64;1768493;81;25649;-74
2022/06/08 08:57:03;;;;;;;10.15;8.38;;;;;;;17.15;91.28;98170.98;1768417;80;27606;-66
2022/06/08 08:59:32;;;;;;;10.60;8.20;;;;;;;17.17;91.31;98171.42;1738754;80;25530;-64
2022/06/08 09:02:00;;;;;;;10.35;8.65;;;;;;;17.17;91.42;98167.27;1768437;80;25456;-69
2022/06/08 09:04:34;;;;;;;10.58;8.33;;;;;;;17.20;92.07;98159.61;1768223;80;25688;-65
2022/06/08 09:07:21;;;;;;;10.32;8.55;;;;;;;17.18;91.12;98159.98;1768573;80;25768;-66
2022/06/08 09:09:49;;;;;;;10.40;8.58;;;;;;;17.16;91.87;98151.23;1768137;81;28363;-71
2022/06/08 09:12:19;;;;;;;9.78;7.78;;;;;;;17.15;92.03;98147.45;1768162;80;25720;-70
2022/06/08 09:15:00;;;;;;;11.97;9.00;;;;;;;17.15;92.21;98145.50;1768645;81;25599;-73
2022/06/08 09:17:37;;;;;;;11.12;8.63;;;;;;;17.12;92.12;98140.70;1768184;81;25820;-69
2022/06/08 09:20:24;;;;;;;10.65;8.80;;;;;;;17.12;92.40;98135.73;1768578;81;25590;-66
2022/06/08 09:22:55;;;;;;;11.70;8.48;;;;;;;17.13;92.12;98135.97;1768762;80;28043;-62
2022/06/08 09:25:32;;;;;;;8.88;7.95;;;;;;;17.20;92.76;98116.70;1768398;81;25464;-66
2022/06/08 09:28:00;;;;;;;11.12;7.92;;;;;;;17.25;92.89;98112.81;1768450;80;25451;-66
2022/06/08 09:30:31;;;;;;;9.80;8.53;;;;;;;17.25;92.25;98116.39;1768446;80;25694;-62
2022/06/08 09:33:17;;;;;;;10.85;7.65;;;;;;;17.29;92.15;98115.05;1759299;80;26418;-65
2022/06/08 09:36:03;;;;;;;12.43;8.58;;;;;;;17.33;92.35;98116.49;1775294;80;26080;-68
2022/06/08 09:38:35;;;;;;;10.15;8.45;;;;;;;17.36;92.53;98108.22;1775304;80;27180;-62
2022/06/08 09:41:19;;;;;;;10.58;8.20;;;;;;;17.43;91.96;98106.16;1775658;80;25649;-66
2022/06/08 09:44:17;;;;;;;11.48;8.45;;;;;;;17.42;91.29;98109.50;1774883;80;25796;-68
2022/06/08 09:53:03;;;;;;;12.65;9.68;;;;;;;17.65;91.02;98121.70;1775311;80;25395;-66
2022/06/08 09:56:24;;;;;;;12.00;9.53;;;;;;;17.80;91.26;98124.06;1775207;79;25413;-68
2022/06/08 09:59:29;;;;;;;12.58;8.95;;;;;;;17.84;89.72;98119.36;1775661;80;25708;-66
2022/06/08 10:02:13;;;;;;;11.15;8.38;;;;;;;17.88;89.47;98113.27;1775490;80;25561;-62
2022/06/08 10:04:51;;;;;;;10.25;7.83;;;;;;;17.98;89.65;98103.50;1775274;79;27672;-67
2022/06/08 10:07:40;;;;;;;12.80;9.40;;;;;;;17.98;89.59;98104.89;1775525;80;25557;-67
2022/06/08 10:10:22;;;;;;;10.43;9.15;;;;;;;18.08;90.09;98100.66;1775694;80;25636;-66
2022/06/08 10:13:03;;;;;;;9.83;8.35;;;;;;;18.14;89.03;98101.92;1775572;80;25905;-66
2022/06/08 10:15:35;;;;;;;10.20;9.08;;;;;;;18.09;88.00;98098.09;1775737;80;25627;-65
2022/06/08 10:18:31;;;;;;;12.30;10.05;;;;;;;18.06;88.88;98101.61;1775540;80;27641;-67
2022/06/08 10:21:12;;;;;;;11.80;9.08;;;;;;;18.09;88.74;98099.47;1775790;80;25729;-63
2022/06/08 10:24:13;;;;;;;11.40;9.53;;;;;;;18.15;88.16;98097.99;1775052;79;25692;-64
2022/06/08 10:26:54;;;;;;;10.75;8.90;;;;;;;18.27;88.47;98093.34;1775808;80;26376;-65
2022/06/08 10:29:40;;;;;;;;;;;;;;;18.42;89.38;98093.71;1770069;80;25760;-64
2022/06/08 10:32:21;;;;;;;10.85;8.90;;;;;;;18.55;88.89;98098.41;1774142;80;27425;-64
2022/06/08 10:34:53;;;;;;;;;;;;;;;18.56;87.37;98097.22;1768298;80;25925;-64
2022/06/08 10:37:22;;;;;;;10.60;8.05;;;;;;;18.64;88.00;98093.12;1765959;80;25462;-63
2022/06/08 10:39:50;;;;;;;10.00;9.00;;;;;;;18.63;86.22;98095.69;1765271;80;25954;-63
2022/06/08 10:42:46;;;;;;;8.00;6.47;;;;;;;18.75;86.24;98100.16;1765261;80;25603;-63
2022/06/08 10:45:30;;;;;;;9.05;7.33;;;;;;;18.74;84.72;98098.57;1765136;80;26937;-63
2022/06/08 10:48:13;;;;;;;9.60;8.60;;;;;;;18.74;84.70;98099.95;1764510;80;27128;-63
2022/06/08 10:50:48;;;;;;;9.23;7.42;;;;;;;18.66;84.80;98099.91;1767084;80;25528;-63
2022/06/08 10:56:34;;;;;;;9.80;8.15;;;;;;;18.67;85.71;98091.77;1731980;82;25496;-63
2022/06/08 10:59:13;;;;;;;9.33;7.97;;;;;;;18.73;85.77;98092.22;1769487;81;28117;-63
2022/06/08 11:02:03;;;;;;;9.20;7.80;;;;;;;18.81;85.58;98092.50;1769582;81;25667;-63
2022/06/08 11:04:38;;;;;;;8.53;7.22;;;;;;;18.96;85.26;98092.59;1768977;81;26022;-63
2022/06/08 11:07:16;;;;;;;7.62;6.72;;;;;;;19.07;83.70;98089.91;1769612;81;25871;-62
2022/06/08 11:09:59;;;;;;;8.03;6.33;;;;;;;19.23;83.21;98090.25;1769500;81;25477;-62
2022/06/08 11:12:51;;;;;;;7.70;5.50;;;;;;;19.28;83.29;98089.28;1769863;81;27518;-62
2022/06/08 11:15:29;;;;;;;6.50;5.87;;;;;;;19.19;80.94;98086.05;1769997;81;25748;-62
2022/06/08 11:18:03;;;;;;;9.98;7.00;;;;;;;19.16;82.16;98085.43;1768884;81;25486;-62
2022/06/08 11:20:47;;;;;;;8.50;7.12;;;;;;;19.13;82.79;98096.73;1769693;81;26888;-62
2022/06/08 11:23:19;;;;;;;7.42;6.62;;;;;;;19.10;81.93;98090.55;1769662;81;25632;-62
2022/06/08 11:26:06;;;;;;;8.35;6.80;;;;;;;19.09;81.53;98090.94;1769513;81;27423;-62
2022/06/08 11:28:43;;;;;;;8.15;7.33;;;;;;;19.03;80.78;98087.70;1768929;81;25905;-62
2022/06/08 11:31:32;;;;;;;8.08;6.80;;;;;;;19.03;81.48;98088.48;1769206;81;25633;-62
2022/06/08 11:34:23;;;;;;;8.45;7.15;;;;;;;19.12;81.75;98088.20;1767763;80;26511;-61
2022/06/08 11:36:58;;;;;;;8.78;6.50;;;;;;;19.15;81.48;98088.82;1776901;80;25863;-61
2022/06/08 11:40:08;;;;;;;7.53;5.85;;;;;;;19.17;81.05;98082.27;1778070;80;28286;-61
2022/06/08 11:42:40;;;;;;;9.75;8.03;;;;;;;19.23;80.58;98080.53;1778497;80;25596;-61
2022/06/08 11:45:20;;;;;;;7.60;6.60;;;;;;;19.26;81.83;98079.14;1733932;80;25727;-61
2022/06/08 11:48:04;;;;;;;8.38;6.58;;;;;;;19.35;80.58;98077.44;1778746;80;25757;-61
2022/06/08 11:50:45;;;;;;;8.60;7.42;;;;;;;19.40;80.52;98080.44;1778339;80;25610;-61
2022/06/08 11:53:38;;;;;;;7.78;7.03;;;;;;;19.49;81.81;98072.53;1774735;80;27425;-61
2022/06/08 11:56:29;;;;;;;8.45;7.08;;;;;;;19.65;81.48;98073.63;1778228;80;25399;-61
2022/06/08 11:58:58;;;;;;;;;;;;;;;19.81;79.99;98065.55;1780883;80;25657;-61
2022/06/08 12:01:42;;;;;;;7.70;6.75;;;;;;;19.88;80.54;98065.58;1778671;80;25954;-61
2022/06/08 12:04:17;;;;;;;9.53;7.92;;;;;;;19.94;79.42;98065.39;1777450;80;25604;-61
2022/06/08 12:06:45;;;;;;;9.15;8.18;;;;;;;19.86;80.44;98054.65;1778413;80;27364;-61
2022/06/08 12:09:34;;;;;;;8.75;7.25;;;;;;;19.76;80.70;98053.41;1778318;80;25640;-60
2022/06/08 12:12:14;;;;;;;8.55;7.20;;;;;;;19.69;79.88;98050.02;1778354;80;25499;-60
2022/06/08 12:14:42;;;;;;;7.72;6.92;;;;;;;19.64;79.76;98049.00;1778813;80;25820;-60
2022/06/08 12:17:20;;;;;;;8.45;7.45;;;;;;;19.69;79.33;98047.24;1778326;80;25503;-60